Time;durP1;ratioP1;P1;durP2;ratioP2;P2;SDS_P1;SDS_P2;PMS_P1;PMS_P2;Temp;Humidity;BMP_temperature;BMP_pressure;BME280_temperature;BME280_humidity;BME280_pressure;Samples;Min_cycle;Max_cycle;Signal;HPM_P1;HPM_P2
2022/07/17 00:01:22;;;;;;;5.80;1.90;;;;;;;12.14;70.78;101956.09;107672;1281;72545;-87
2022/07/17 00:03:49;;;;;;;4.80;1.60;;;;;;;12.12;71.10;101950.95;107498;1279;72196;-87
2022/07/17 00:06:17;;;;;;;7.10;1.80;;;;;;;12.09;71.28;101949.36;107704;1281;63005;-87
2022/07/17 00:08:44;;;;;;;7.80;1.80;;;;;;;12.07;71.33;101949.38;107738;1281;62070;-87
2022/07/17 00:11:11;;;;;;;7.00;1.90;;;;;;;12.05;71.37;101940.39;107301;1282;76534;-87
2022/07/17 00:13:38;;;;;;;5.60;1.60;;;;;;;12.03;71.58;101944.27;107733;1281;71527;-87
2022/07/17 00:16:08;;;;;;;6.70;2.20;;;;;;;12.01;71.63;101942.21;107671;1280;73501;-87
2022/07/17 00:18:36;;;;;;;7.30;1.60;;;;;;;11.98;71.62;101938.80;107724;1280;62293;-87
2022/07/17 00:21:06;;;;;;;7.20;1.70;;;;;;;11.94;71.81;101940.89;107400;1280;60634;-87
2022/07/17 00:23:33;;;;;;;6.40;1.80;;;;;;;11.91;71.92;101942.66;107733;1280;75442;-87
2022/07/17 00:26:00;;;;;;;5.90;1.60;;;;;;;11.87;72.05;101940.52;107737;1281;71674;-87
2022/07/17 00:28:27;;;;;;;5.00;1.70;;;;;;;11.83;72.20;101937.30;107702;1279;73156;-87
2022/07/17 00:30:54;;;;;;;6.70;1.70;;;;;;;11.80;72.36;101934.99;107658;1280;62331;-87
2022/07/17 00:33:21;;;;;;;5.40;1.60;;;;;;;11.76;72.49;101929.35;107432;1281;60958;-87
2022/07/17 00:35:48;;;;;;;6.70;1.70;;;;;;;11.72;72.81;101933.13;107490;1282;76625;-87
2022/07/17 00:38:15;;;;;;;7.20;2.00;;;;;;;11.69;72.86;101933.42;107428;1280;71336;-87
2022/07/17 00:40:45;;;;;;;8.70;2.20;;;;;;;11.66;73.16;101938.21;107519;1279;72100;-87
2022/07/17 00:43:12;;;;;;;8.10;2.00;;;;;;;11.62;73.36;101937.63;107719;1280;62282;-87
2022/07/17 00:45:40;;;;;;;6.60;2.00;;;;;;;11.60;73.30;101938.39;107540;1281;61114;-87
2022/07/17 00:48:10;;;;;;;8.60;1.90;;;;;;;11.57;73.55;101937.63;107724;1281;75940;-87
2022/07/17 00:50:41;;;;;;;6.20;1.70;;;;;;;11.53;73.81;101943.51;107503;1281;71766;-87
2022/07/17 00:53:08;;;;;;;7.00;1.90;;;;;;;11.50;74.13;101944.88;107695;1281;73825;-87
2022/07/17 00:55:35;;;;;;;6.60;1.90;;;;;;;11.48;74.04;101938.20;107495;1281;62380;-87
2022/07/17 00:58:16;;;;;;;8.40;1.90;;;;;;;11.43;73.95;101939.66;107471;1281;59633;-87
2022/07/17 01:00:43;;;;;;;6.30;1.80;;;;;;;11.41;74.18;101939.40;107709;1281;75860;-87
2022/07/17 01:03:10;;;;;;;8.00;1.90;;;;;;;11.38;74.30;101937.48;107385;1281;71569;-87
2022/07/17 01:05:37;;;;;;;8.80;1.90;;;;;;;11.36;74.29;101935.64;107382;1281;72817;-87
2022/07/17 01:08:05;;;;;;;7.40;2.10;;;;;;;11.32;74.41;101935.95;107318;1281;62238;-87
2022/07/17 01:10:32;;;;;;;7.90;1.80;;;;;;;11.29;74.62;101931.00;107568;1280;61270;-87
2022/07/17 01:12:59;;;;;;;6.00;1.90;;;;;;;11.25;74.84;101934.20;107384;1281;77646;-87
2022/07/17 01:15:26;;;;;;;8.00;2.00;;;;;;;11.21;75.07;101930.15;107701;1281;72449;-87
2022/07/17 01:17:53;;;;;;;6.80;1.90;;;;;;;11.18;75.25;101935.27;107478;1281;73218;-87
2022/07/17 01:20:20;;;;;;;8.30;2.10;;;;;;;11.13;75.39;101935.33;107186;1281;487847;-86
2022/07/17 01:22:49;;;;;;;6.40;1.70;;;;;;;11.10;75.62;101931.20;107528;1280;60620;-87
2022/07/17 01:25:20;;;;;;;4.40;1.90;;;;;;;11.07;75.80;101933.27;107518;1281;74768;-87
2022/07/17 01:27:47;;;;;;;5.30;1.90;;;;;;;11.03;75.72;101934.58;107303;1283;72556;-87
2022/07/17 01:30:14;;;;;;;7.80;1.90;;;;;;;10.98;75.86;101934.98;107741;1280;71719;-87
2022/07/17 01:32:43;;;;;;;7.80;2.10;;;;;;;10.94;76.39;101939.48;107505;1281;62231;-86
2022/07/17 01:35:12;;;;;;;8.00;1.80;;;;;;;10.89;76.72;101939.25;107325;1282;60931;-87
2022/07/17 01:37:40;;;;;;;6.20;1.80;;;;;;;10.86;77.00;101940.66;107732;1280;75855;-86
2022/07/17 01:40:09;;;;;;;6.50;1.90;;;;;;;10.81;77.49;101938.95;107564;1281;70204;-87
2022/07/17 01:42:36;;;;;;;7.00;1.80;;;;;;;10.76;78.02;101934.83;107653;1281;73215;-87
2022/07/17 01:45:04;;;;;;;7.60;2.00;;;;;;;10.72;78.15;101936.13;107670;1280;63085;-87
2022/07/17 01:47:31;;;;;;;6.20;1.90;;;;;;;10.69;78.18;101931.98;107619;1280;61992;-87
2022/07/17 01:49:58;;;;;;;9.30;1.90;;;;;;;10.66;78.19;101931.20;108224;1280;75909;-87
2022/07/17 01:52:26;;;;;;;6.10;1.90;;;;;;;10.64;78.71;101934.54;108196;1280;70867;-87
2022/07/17 01:54:53;;;;;;;5.60;2.10;;;;;;;10.63;78.40;101933.80;108111;1281;73156;-87
2022/07/17 01:57:20;;;;;;;5.40;1.80;;;;;;;10.62;78.41;101934.90;108044;1282;63469;-87
2022/07/17 01:59:47;;;;;;;5.80;2.00;;;;;;;10.60;78.58;101930.95;108250;1281;62599;-87
2022/07/17 02:02:17;;;;;;;6.90;1.70;;;;;;;10.59;78.40;101930.59;107922;1280;75588;-87
2022/07/17 02:04:45;;;;;;;5.80;2.10;;;;;;;10.56;78.36;101935.04;107582;1280;72969;-87
2022/07/17 02:07:12;;;;;;;7.30;1.90;;;;;;;10.54;78.56;101939.71;107726;1280;74118;-87
2022/07/17 02:09:39;;;;;;;7.30;2.20;;;;;;;10.52;78.70;101943.29;107418;1281;62290;-87
2022/07/17 02:12:06;;;;;;;6.00;2.20;;;;;;;10.49;78.70;101941.44;107676;1281;60338;-87
2022/07/17 02:14:34;;;;;;;6.00;2.00;;;;;;;10.46;78.86;101947.39;107662;1280;76256;-87
2022/07/17 02:17:02;;;;;;;8.00;2.30;;;;;;;10.43;79.21;101946.48;107399;1282;71288;-87
2022/07/17 02:19:29;;;;;;;9.20;2.30;;;;;;;10.39;79.52;101943.04;107507;1281;73909;-87
2022/07/17 02:21:56;;;;;;;6.10;1.90;;;;;;;10.36;79.78;101944.75;107562;1281;62110;-86
2022/07/17 02:24:23;;;;;;;8.90;2.50;;;;;;;10.33;80.31;101946.33;107594;1281;60481;-86
2022/07/17 02:26:50;;;;;;;6.00;2.40;;;;;;;10.30;80.60;101944.98;107688;1280;78986;-87
2022/07/17 02:29:18;;;;;;;7.10;2.10;;;;;;;10.27;80.67;101943.77;107538;1281;71512;-87
2022/07/17 02:31:45;;;;;;;8.40;2.40;;;;;;;10.27;81.10;101942.23;107475;1280;73311;-87
2022/07/17 02:34:12;;;;;;;7.70;2.10;;;;;;;10.26;80.98;101941.77;107528;1281;61068;-87
2022/07/17 02:36:39;;;;;;;7.20;2.60;;;;;;;10.25;80.91;101938.22;107694;1280;60180;-87
2022/07/17 02:39:06;;;;;;;8.60;2.40;;;;;;;10.24;81.18;101939.30;107558;1281;78782;-87
2022/07/17 02:41:34;;;;;;;9.10;2.30;;;;;;;10.23;81.33;101934.61;107705;1280;70601;-87
2022/07/17 02:44:01;;;;;;;8.30;2.40;;;;;;;10.23;81.63;101938.18;107488;1281;73961;-87
2022/07/17 02:46:28;;;;;;;6.40;2.00;;;;;;;10.23;81.88;101937.32;107374;1282;60258;-87
2022/07/17 02:48:55;;;;;;;5.80;1.90;;;;;;;10.22;81.78;101939.33;107528;1281;60611;-86
2022/07/17 02:51:22;;;;;;;6.10;2.00;;;;;;;10.22;81.69;101941.25;107673;1280;78234;-87
2022/07/17 02:53:49;;;;;;;8.10;2.00;;;;;;;10.21;81.60;101943.23;107525;1280;72179;-87
2022/07/17 02:56:17;;;;;;;6.30;2.00;;;;;;;10.21;81.72;101947.98;107666;1280;74879;-87
2022/07/17 02:58:44;;;;;;;6.40;2.00;;;;;;;10.21;81.47;101952.48;107452;1282;61553;-87
2022/07/17 03:01:11;;;;;;;8.70;2.50;;;;;;;10.18;81.47;101951.27;107434;1281;61864;-86
2022/07/17 03:03:38;;;;;;;6.80;2.20;;;;;;;10.15;81.45;101949.66;107653;1281;77270;-87
2022/07/17 03:06:08;;;;;;;7.20;2.10;;;;;;;10.12;81.74;101955.75;107666;1280;73636;-87
2022/07/17 03:08:34;;;;;;;7.80;2.10;;;;;;;10.09;81.51;101958.66;107601;1280;72723;-87
2022/07/17 03:11:02;;;;;;;6.90;1.90;;;;;;;10.07;81.67;101959.95;107643;1281;60422;-87
2022/07/17 03:13:31;;;;;;;7.10;2.20;;;;;;;10.06;81.79;101965.23;107473;1282;61861;-87
2022/07/17 03:15:58;;;;;;;4.30;1.90;;;;;;;10.04;81.79;101960.23;107646;1281;77273;-87
2022/07/17 03:18:25;;;;;;;9.20;2.30;;;;;;;10.03;81.55;101966.85;107543;1282;71974;-87
2022/07/17 03:20:51;;;;;;;7.70;1.90;;;;;;;10.02;81.65;101968.94;107545;1281;74812;-87
2022/07/17 03:23:19;;;;;;;7.60;2.00;;;;;;;10.00;81.82;101971.69;107337;1281;60534;-87
2022/07/17 03:25:46;;;;;;;6.10;1.90;;;;;;;10.00;82.14;101974.17;107609;1281;60867;-87
2022/07/17 03:28:14;;;;;;;5.60;2.20;;;;;;;10.00;81.76;101973.32;107662;1281;77232;-87
2022/07/17 03:30:41;;;;;;;7.70;2.30;;;;;;;9.99;81.96;101975.02;107643;1280;70918;-87
2022/07/17 03:33:08;;;;;;;7.80;2.50;;;;;;;9.97;82.18;101973.20;107481;1282;73169;-87
2022/07/17 03:35:35;;;;;;;7.00;2.40;;;;;;;9.96;82.35;101979.64;107654;1281;61467;-87
2022/07/17 03:38:02;;;;;;;5.00;2.10;;;;;;;9.96;82.86;101982.69;107674;1281;62749;-87
2022/07/17 03:40:30;;;;;;;6.60;2.40;;;;;;;9.94;82.89;101980.17;107551;1281;76102;-87
2022/07/17 03:42:57;;;;;;;8.30;2.10;;;;;;;9.94;83.09;101979.48;107636;1281;71226;-87
2022/07/17 03:45:24;;;;;;;5.30;2.10;;;;;;;9.95;83.03;101982.60;107561;1281;74223;-87
2022/07/17 03:47:52;;;;;;;6.30;2.20;;;;;;;9.96;82.99;101983.08;107651;1281;59985;-87
2022/07/17 03:50:19;;;;;;;8.20;2.30;;;;;;;9.98;83.02;101985.17;107551;1281;61665;-87
2022/07/17 03:52:46;;;;;;;7.10;2.00;;;;;;;10.01;82.90;101990.06;107508;1282;75466;-87
2022/07/17 03:55:14;;;;;;;6.30;2.10;;;;;;;10.04;83.31;101990.30;107560;1281;71691;-87
2022/07/17 03:57:41;;;;;;;6.50;2.20;;;;;;;10.08;82.96;101992.56;107665;1281;74575;-87
2022/07/17 04:00:09;;;;;;;7.30;1.90;;;;;;;10.13;82.85;101999.35;107657;1278;61394;-86
2022/07/17 04:02:36;;;;;;;5.20;2.10;;;;;;;10.19;82.72;102002.57;107625;1281;60671;-87
2022/07/17 04:05:04;;;;;;;7.90;2.10;;;;;;;10.24;82.91;101999.95;107455;1282;76102;-87
2022/07/17 04:07:31;;;;;;;5.90;1.80;;;;;;;10.29;82.75;101998.40;107499;1282;71470;-87
2022/07/17 04:09:58;;;;;;;6.00;2.00;;;;;;;10.35;82.90;101998.64;107847;1280;72231;-87
2022/07/17 04:12:26;;;;;;;6.20;2.10;;;;;;;10.41;82.92;101994.33;107506;1281;60694;-87
2022/07/17 04:14:54;;;;;;;6.30;2.00;;;;;;;10.48;83.07;101996.89;107627;1280;60317;-86
2022/07/17 04:17:22;;;;;;;7.50;2.10;;;;;;;10.56;82.96;101997.71;107400;1281;76198;-87
2022/07/17 04:19:50;;;;;;;7.00;2.10;;;;;;;10.64;82.95;101999.13;107289;1283;72856;-86
2022/07/17 04:22:17;;;;;;;7.80;2.10;;;;;;;10.72;82.74;101999.23;107256;1284;76065;-86
2022/07/17 04:24:44;;;;;;;7.60;1.90;;;;;;;10.83;82.49;101994.89;107531;1281;62290;-88
2022/07/17 04:27:11;;;;;;;9.70;2.30;;;;;;;10.93;82.30;101988.05;107443;1284;59747;-87
2022/07/17 04:29:38;;;;;;;6.90;2.10;;;;;;;11.03;82.01;101982.17;107635;1281;77533;-87
2022/07/17 04:32:05;;;;;;;5.60;1.80;;;;;;;11.13;81.61;101978.05;107682;1280;72802;-87
2022/07/17 04:34:32;;;;;;;5.80;1.90;;;;;;;11.24;81.37;101980.54;107680;1279;72750;-87
2022/07/17 04:37:01;;;;;;;4.90;1.80;;;;;;;11.35;81.17;101976.98;107326;1282;63240;-87
2022/07/17 04:39:28;;;;;;;10.00;2.00;;;;;;;11.46;80.75;101974.52;107650;1281;61287;-86
2022/07/17 04:41:56;;;;;;;8.40;2.00;;;;;;;11.55;80.59;101976.31;107403;1281;76527;-87
2022/07/17 04:44:23;;;;;;;7.50;2.00;;;;;;;11.66;80.23;101979.47;107551;1281;72300;-87
2022/07/17 04:46:51;;;;;;;5.50;1.90;;;;;;;11.76;79.82;101981.85;107665;1281;73997;-87
2022/07/17 04:49:18;;;;;;;5.90;1.80;;;;;;;11.88;79.65;101985.31;107645;1281;61358;-87
2022/07/17 04:51:45;;;;;;;5.50;1.30;;;;;;;11.99;79.26;101991.89;107648;1281;62382;-87
2022/07/17 04:54:12;;;;;;;4.60;1.70;;;;;;;12.12;79.04;102003.20;107632;1281;75172;-87
2022/07/17 04:56:39;;;;;;;7.20;1.60;;;;;;;12.28;79.12;102007.00;107590;1281;73645;-87
2022/07/17 04:59:06;;;;;;;4.40;1.50;;;;;;;12.44;78.44;102018.62;107533;1281;74037;-87
2022/07/17 05:01:34;;;;;;;4.60;1.60;;;;;;;12.51;77.96;102025.63;107622;1281;62035;-87
2022/07/17 05:04:02;;;;;;;5.60;1.80;;;;;;;12.58;78.03;102028.30;107551;1281;61035;-87
2022/07/17 05:06:29;;;;;;;5.70;1.60;;;;;;;12.66;78.01;102025.92;107583;1281;76428;-87
2022/07/17 05:08:56;;;;;;;7.40;1.70;;;;;;;12.69;77.75;102026.10;107637;1281;70610;-87
2022/07/17 05:11:23;;;;;;;6.90;1.60;;;;;;;12.73;77.69;102023.77;107547;1281;72498;-86
2022/07/17 05:13:51;;;;;;;4.60;1.50;;;;;;;12.78;77.44;102028.08;107691;1281;61063;-86
2022/07/17 05:16:18;;;;;;;4.60;1.60;;;;;;;12.85;77.57;102019.89;107677;1280;61172;-87
2022/07/17 05:18:45;;;;;;;6.90;1.80;;;;;;;12.97;77.46;102015.46;107595;1281;76694;-87
2022/07/17 05:21:14;;;;;;;5.40;1.70;;;;;;;13.13;77.20;102011.91;107643;1282;71525;-87
2022/07/17 05:23:41;;;;;;;7.40;1.60;;;;;;;13.27;76.65;102009.21;107716;1281;74717;-87
2022/07/17 05:26:08;;;;;;;5.70;1.70;;;;;;;13.37;76.07;102004.29;107731;1281;60710;-87
2022/07/17 05:28:35;;;;;;;7.10;1.60;;;;;;;13.44;75.49;102004.44;107613;1281;60427;-87
2022/07/17 05:31:07;;;;;;;5.10;1.40;;;;;;;13.52;75.28;102012.26;107662;1281;75781;-87
2022/07/17 05:33:34;;;;;;;6.60;1.60;;;;;;;13.59;74.92;102004.55;107676;1281;70519;-86
2022/07/17 05:36:02;;;;;;;5.10;1.40;;;;;;;13.64;74.18;101992.92;107559;1281;72100;-86
2022/07/17 05:38:29;;;;;;;6.00;1.60;;;;;;;13.72;73.95;101996.47;107362;1284;62555;-86
2022/07/17 05:40:56;;;;;;;6.60;1.40;;;;;;;13.84;73.75;102007.84;107628;1281;62279;-86
2022/07/17 05:43:23;;;;;;;6.90;1.40;;;;;;;13.93;72.98;102012.55;107439;1282;76917;-87
2022/07/17 05:45:52;;;;;;;5.70;1.90;;;;;;;14.00;72.14;102015.16;107654;1281;71580;-87
2022/07/17 05:48:19;;;;;;;4.00;1.10;;;;;;;14.04;71.69;102009.42;107651;1281;74285;-86
2022/07/17 05:50:46;;;;;;;7.40;1.40;;;;;;;14.10;71.51;102010.51;107612;1280;62273;-85
2022/07/17 05:53:14;;;;;;;4.40;1.20;;;;;;;14.22;71.51;102006.50;107448;1280;61902;-86
2022/07/17 05:55:41;;;;;;;7.80;1.40;;;;;;;14.36;70.87;102004.52;107549;1281;74982;-87
2022/07/17 05:58:08;;;;;;;6.00;1.50;;;;;;;14.48;70.71;102008.84;107581;1281;71070;-86
2022/07/17 06:00:35;;;;;;;5.20;1.20;;;;;;;14.61;70.03;102008.08;107280;1282;72236;-87
2022/07/17 06:03:03;;;;;;;5.00;1.30;;;;;;;14.68;69.15;102005.16;107683;1281;62998;-87
2022/07/17 06:05:30;;;;;;;5.40;1.30;;;;;;;14.76;69.24;101999.22;107657;1280;59894;-86
2022/07/17 06:07:57;;;;;;;4.30;1.20;;;;;;;14.87;68.77;101997.67;107566;1281;76596;-87
2022/07/17 06:10:26;;;;;;;6.20;1.50;;;;;;;14.97;68.42;102004.37;107588;1280;72223;-86
2022/07/17 06:12:53;;;;;;;6.60;1.20;;;;;;;15.07;67.82;102015.02;107373;1282;73778;-86
2022/07/17 06:15:21;;;;;;;6.60;1.40;;;;;;;15.16;67.84;102017.11;107629;1281;62445;-87
2022/07/17 06:17:48;;;;;;;4.00;1.30;;;;;;;15.22;66.83;102018.02;107675;1281;61406;-87
2022/07/17 06:20:16;;;;;;;8.30;1.50;;;;;;;15.28;66.55;102027.09;107436;1281;75600;-87
2022/07/17 06:22:44;;;;;;;5.60;1.10;;;;;;;15.30;65.96;102033.80;107688;1280;72732;-86
2022/07/17 06:25:11;;;;;;;7.40;1.50;;;;;;;15.37;66.10;102025.39;107455;1282;72533;-86
2022/07/17 06:27:42;;;;;;;5.20;1.30;;;;;;;15.47;65.53;102025.16;107574;1281;62249;-86
2022/07/17 06:30:10;;;;;;;5.50;1.10;;;;;;;15.56;65.27;102025.47;107385;1281;60586;-86
2022/07/17 06:32:37;;;;;;;7.00;1.20;;;;;;;15.66;64.76;102020.48;107677;1281;75939;-87
2022/07/17 06:35:05;;;;;;;5.20;1.30;;;;;;;15.76;64.45;102032.73;107413;1281;71530;-86
2022/07/17 06:37:32;;;;;;;5.60;1.40;;;;;;;15.83;63.63;102035.01;107666;1281;73213;-86
2022/07/17 06:39:59;;;;;;;5.10;1.20;;;;;;;15.88;63.50;102031.32;107551;1281;62770;-88
2022/07/17 06:42:26;;;;;;;4.50;1.00;;;;;;;15.98;63.17;102030.74;107587;1281;59865;-87
2022/07/17 06:44:58;;;;;;;6.00;1.30;;;;;;;16.08;62.70;102024.42;107445;1282;76782;-87
2022/07/17 06:47:25;;;;;;;5.00;1.00;;;;;;;16.23;62.12;102020.35;107640;1281;70613;-86
2022/07/17 06:49:52;;;;;;;5.10;1.10;;;;;;;16.36;61.54;102017.87;107397;1281;72192;-87
2022/07/17 06:52:19;;;;;;;6.50;1.40;;;;;;;16.51;60.62;102020.23;107376;1281;62020;-87
2022/07/17 06:54:46;;;;;;;5.30;1.20;;;;;;;16.68;60.56;102026.79;107682;1281;60198;-89
2022/07/17 06:57:13;;;;;;;3.40;1.10;;;;;;;16.82;59.87;102033.05;107672;1280;75895;-87
2022/07/17 06:59:40;;;;;;;6.60;1.40;;;;;;;16.90;59.56;102027.26;107590;1281;71055;-88
2022/07/17 07:02:07;;;;;;;6.00;1.50;;;;;;;17.02;59.46;102024.61;107641;1281;73009;-87
2022/07/17 07:04:34;;;;;;;4.10;1.10;;;;;;;17.16;59.06;102026.29;107901;1281;61068;-88
2022/07/17 07:07:01;;;;;;;5.00;1.20;;;;;;;17.38;59.04;102023.40;108150;1281;60666;-88
2022/07/17 07:09:28;;;;;;;4.80;0.90;;;;;;;17.50;57.55;102027.50;108156;1281;75907;-88
2022/07/17 07:11:54;;;;;;;5.70;1.30;;;;;;;17.64;57.66;102027.05;108134;1281;71505;-87
2022/07/17 07:14:21;;;;;;;6.80;1.10;;;;;;;17.75;56.96;102029.14;108300;1281;73450;-89
2022/07/17 07:16:48;;;;;;;7.30;1.20;;;;;;;17.70;56.31;102033.77;108276;1280;60226;-87
2022/07/17 07:19:15;;;;;;;4.10;1.10;;;;;;;17.61;56.65;102035.84;108165;1281;60614;-87
2022/07/17 07:21:42;;;;;;;5.00;1.40;;;;;;;17.55;57.16;102029.73;108259;1281;74868;-88
2022/07/17 07:24:09;;;;;;;5.50;1.00;;;;;;;17.60;57.48;102029.76;108183;1281;71436;-87
2022/07/17 07:26:35;;;;;;;5.20;1.10;;;;;;;17.59;56.71;102035.91;108254;1280;73197;-87
2022/07/17 07:29:03;;;;;;;2.70;0.80;;;;;;;17.60;56.81;102034.59;108246;1281;60660;-88
2022/07/17 07:31:30;;;;;;;5.40;1.10;;;;;;;17.66;56.85;102030.00;108199;1281;60951;-88
2022/07/17 07:33:58;;;;;;;4.70;1.10;;;;;;;17.68;56.35;102029.20;108302;1281;75829;-87
2022/07/17 07:36:25;;;;;;;6.00;1.30;;;;;;;17.66;56.23;102024.84;108038;1283;72748;-88
2022/07/17 07:38:56;;;;;;;5.50;1.10;;;;;;;17.74;56.33;102025.42;108272;1280;72985;-88
2022/07/17 07:41:23;;;;;;;5.90;1.30;;;;;;;17.85;56.29;102026.60;108293;1281;60194;-88
2022/07/17 07:43:49;;;;;;;6.50;1.20;;;;;;;17.91;55.90;102027.79;108176;1281;60714;-88
2022/07/17 07:46:19;;;;;;;4.30;1.10;;;;;;;18.07;55.97;102026.45;108266;1281;76241;-88
2022/07/17 07:48:46;;;;;;;5.10;1.10;;;;;;;18.21;54.85;102029.80;107842;1281;70871;-88
2022/07/17 07:51:13;;;;;;;4.20;1.20;;;;;;;18.31;54.32;102027.28;107938;1281;72857;-88
2022/07/17 07:53:40;;;;;;;4.30;1.00;;;;;;;18.48;53.66;102024.52;107900;1280;60802;-87
2022/07/17 07:56:07;;;;;;;5.70;1.00;;;;;;;18.70;53.70;102027.30;108069;1281;60967;-88
2022/07/17 07:58:34;;;;;;;5.20;1.10;;;;;;;18.93;52.20;102030.61;108096;1281;77152;-87
2022/07/17 08:01:06;;;;;;;4.70;0.90;;;;;;;19.04;51.48;102024.96;108051;1281;71822;-89
2022/07/17 08:03:39;;;;;;;4.60;1.00;;;;;;;19.44;51.82;102027.55;107784;1282;72552;-87
2022/07/17 08:06:08;;;;;;;5.40;1.10;;;;;;;19.65;49.67;102032.85;108086;1281;61998;-90
2022/07/17 08:08:35;;;;;;;4.70;1.00;;;;;;;19.91;49.43;102028.08;107701;1282;59644;-88
2022/07/17 08:11:10;;;;;;;4.10;0.90;;;;;;;20.06;48.82;102033.20;107796;1281;75820;-89
2022/07/17 08:16:14;;;;;;;5.40;1.00;;;;;;;20.12;48.18;102037.58;107951;1269;159147;-87
2022/07/17 08:18:41;;;;;;;4.10;1.10;;;;;;;20.01;48.09;102034.40;108028;1276;61157;-87
2022/07/17 08:21:09;;;;;;;5.30;1.00;;;;;;;19.80;48.34;102034.65;107902;1277;61315;-87
2022/07/17 08:23:36;;;;;;;6.70;1.40;;;;;;;19.67;48.86;102035.63;107935;1276;76334;-87
2022/07/17 08:26:08;;;;;;;4.80;1.00;;;;;;;19.56;49.02;102042.80;107982;1276;73250;-87
2022/07/17 08:28:37;;;;;;;5.30;1.30;;;;;;;19.51;49.01;102045.21;107987;1277;72563;-87
2022/07/17 08:31:10;;;;;;;3.60;1.00;;;;;;;19.52;48.92;102041.70;108101;1276;61770;-87
2022/07/17 08:33:37;;;;;;;6.40;0.90;;;;;;;19.65;48.92;102047.92;107749;1277;60466;-87
2022/07/17 08:36:13;;;;;;;3.10;0.70;;;;;;;19.85;48.67;102053.09;107867;1278;75964;-87
2022/07/17 08:38:40;;;;;;;4.90;1.20;;;;;;;19.85;47.78;102063.48;108027;1276;72566;-88
2022/07/17 08:41:09;;;;;;;5.30;1.10;;;;;;;19.76;47.93;102061.07;108003;1277;73414;-88
2022/07/17 08:43:37;;;;;;;5.90;1.10;;;;;;;19.87;48.05;102056.21;107886;1277;60566;-87
2022/07/17 08:46:12;;;;;;;4.10;1.00;;;;;;;20.00;47.71;102053.45;107986;1276;60577;-87
2022/07/17 08:48:44;;;;;;;4.40;1.00;;;;;;;19.97;47.59;102057.35;107847;1276;75990;-87
2022/07/17 08:51:12;;;;;;;4.50;0.90;;;;;;;19.88;46.61;102054.27;108135;1276;73513;-88
2022/07/17 08:53:40;;;;;;;3.50;1.00;;;;;;;19.79;46.83;102062.89;107975;1277;74000;-87
2022/07/17 08:56:08;;;;;;;4.20;0.90;;;;;;;19.80;47.72;102062.66;108146;1276;60702;-87
2022/07/17 08:58:38;;;;;;;4.50;1.00;;;;;;;19.87;47.17;102058.61;107988;1277;61887;-87
2022/07/17 09:01:08;;;;;;;3.30;0.80;;;;;;;19.84;47.09;102054.51;107930;1278;77131;-87
2022/07/17 09:03:36;;;;;;;3.20;0.80;;;;;;;19.72;47.33;102059.06;108008;1277;71533;-87
2022/07/17 09:06:23;;;;;;;3.50;1.30;;;;;;;19.71;48.17;102058.44;108048;1276;71326;-87
2022/07/17 09:09:09;;;;;;;3.90;1.00;;;;;;;19.86;48.47;102056.13;107948;1277;60947;-87
2022/07/17 09:11:48;;;;;;;4.20;0.90;;;;;;;20.04;47.82;102055.59;108003;1277;61633;-81
2022/07/17 09:14:15;;;;;;;3.10;0.70;;;;;;;20.08;47.28;102059.70;107777;1278;76185;-81
2022/07/17 09:16:59;;;;;;;6.40;1.60;;;;;;;19.99;47.08;102057.58;107820;1278;72394;-81
2022/07/17 09:19:30;;;;;;;3.70;0.80;;;;;;;20.00;46.71;102055.44;108064;1277;72756;-81
2022/07/17 09:22:08;;;;;;;5.50;1.20;;;;;;;19.86;46.85;102059.98;108067;1277;60011;-81
2022/07/17 09:24:53;;;;;;;5.70;1.00;;;;;;;19.81;47.38;102059.88;108082;1276;61632;-82
2022/07/17 09:27:32;;;;;;;4.30;0.90;;;;;;;19.91;48.22;102049.63;107956;1277;76227;-81
2022/07/17 09:30:06;;;;;;;4.20;1.00;;;;;;;20.05;47.97;102054.42;108115;1277;72562;-81
2022/07/17 09:32:35;;;;;;;4.00;1.10;;;;;;;20.08;47.62;102056.84;107616;1277;73992;-81
2022/07/17 09:35:05;;;;;;;4.70;1.20;;;;;;;20.01;47.27;102051.27;108073;1276;60977;-81
2022/07/17 09:37:32;;;;;;;6.40;1.10;;;;;;;20.14;46.96;102043.80;108094;1277;60623;-81
2022/07/17 09:40:01;;;;;;;5.30;1.20;;;;;;;20.21;47.17;102052.91;107962;1277;75580;-81
2022/07/17 09:42:32;;;;;;;3.80;1.00;;;;;;;20.27;47.66;102050.92;108083;1277;72349;-81
2022/07/17 09:45:06;;;;;;;4.70;0.90;;;;;;;20.18;47.52;102059.25;108117;1277;74227;-81
2022/07/17 09:47:35;;;;;;;4.60;1.10;;;;;;;20.13;47.72;102054.19;107921;1277;61264;-81
2022/07/17 09:50:04;;;;;;;5.00;1.30;;;;;;;20.19;48.23;102050.21;108075;1277;61389;-81
2022/07/17 09:52:34;;;;;;;6.90;1.40;;;;;;;20.40;48.59;102042.88;107824;1277;76095;-81
2022/07/17 09:55:02;;;;;;;5.20;1.00;;;;;;;20.67;47.97;102044.84;108086;1276;71144;-81
2022/07/17 09:57:53;;;;;;;5.00;1.00;;;;;;;20.75;47.40;102048.86;107988;1277;74205;-81
2022/07/17 10:00:22;;;;;;;5.20;1.00;;;;;;;20.65;46.42;102059.61;108084;1277;61560;-81
2022/07/17 10:02:51;;;;;;;3.00;0.90;;;;;;;20.62;46.60;102054.42;108103;1277;61467;-81
2022/07/17 10:05:18;;;;;;;4.80;1.60;;;;;;;20.61;46.43;102056.79;107788;1277;75773;-81
2022/07/17 10:07:46;;;;;;;6.70;1.00;;;;;;;20.70;46.41;102046.76;108098;1277;74650;-81
2022/07/17 10:10:16;;;;;;;3.90;1.00;;;;;;;20.85;46.51;102041.27;107954;1275;73186;-82
2022/07/17 10:12:44;;;;;;;5.00;1.00;;;;;;;20.89;46.12;102045.76;107843;1277;60468;-81
2022/07/17 10:15:12;;;;;;;4.50;0.90;;;;;;;20.87;46.03;102041.83;107849;1278;62607;-81
2022/07/17 10:17:39;;;;;;;4.90;1.10;;;;;;;20.91;44.59;102042.43;107907;1277;79620;-81
2022/07/17 10:20:13;;;;;;;4.10;0.90;;;;;;;20.98;44.79;102046.45;107974;1276;70162;-81
2022/07/17 10:22:45;;;;;;;3.70;1.10;;;;;;;21.00;45.14;102048.56;108119;1276;73768;-81
2022/07/17 10:25:15;;;;;;;3.00;0.80;;;;;;;21.03;45.24;102042.54;107723;1277;61918;-81
2022/07/17 10:27:55;;;;;;;5.40;1.30;;;;;;;21.14;44.89;102041.63;108155;1276;61650;-81
2022/07/17 10:30:27;;;;;;;4.80;0.90;;;;;;;21.18;44.01;102052.54;107795;1277;76524;-82
2022/07/17 10:32:59;;;;;;;4.10;1.00;;;;;;;21.20;43.82;102048.34;108006;1277;72686;-82
2022/07/17 10:35:28;;;;;;;4.00;0.80;;;;;;;21.23;43.90;102049.98;108094;1276;74313;-82
2022/07/17 10:38:10;;;;;;;4.70;1.20;;;;;;;21.37;42.48;102045.18;108122;1276;61081;-82
2022/07/17 10:40:38;;;;;;;5.00;1.00;;;;;;;21.56;42.46;102039.54;107969;1276;61710;-82
2022/07/17 10:43:06;;;;;;;3.30;0.80;;;;;;;21.76;42.13;102032.42;108033;1277;75710;-81
2022/07/17 10:45:39;;;;;;;3.20;0.90;;;;;;;21.81;40.67;102041.27;108086;1276;70898;-81
2022/07/17 10:48:10;;;;;;;3.10;0.80;;;;;;;21.72;39.97;102038.05;108037;1277;74170;-82
2022/07/17 10:50:40;;;;;;;3.60;0.80;;;;;;;21.71;40.11;102037.89;107993;1276;60478;-82
2022/07/17 10:53:22;;;;;;;4.30;0.80;;;;;;;21.76;40.85;102030.75;108135;1276;60879;-82
2022/07/17 10:55:58;;;;;;;3.80;1.40;;;;;;;21.96;40.34;102033.70;108008;1277;77180;-82
2022/07/17 10:58:32;;;;;;;2.80;0.90;;;;;;;22.18;41.15;102029.48;108098;1276;72707;-81
2022/07/17 11:01:24;;;;;;;4.10;0.80;;;;;;;22.37;40.44;102031.55;107851;1276;73165;-81
2022/07/17 11:03:54;;;;;;;5.60;1.10;;;;;;;22.27;38.54;102034.63;108100;1276;60542;-81
2022/07/17 11:06:22;;;;;;;3.50;0.90;;;;;;;22.22;38.69;102034.70;107904;1277;60827;-81
2022/07/17 11:08:51;;;;;;;6.90;1.20;;;;;;;22.18;38.92;102030.22;108061;1276;76950;-81
2022/07/17 11:11:40;;;;;;;3.70;0.90;;;;;;;22.19;38.77;102023.14;108142;1276;72370;-81
2022/07/17 11:14:15;;;;;;;5.00;1.30;;;;;;;22.40;39.38;102018.45;107876;1277;73994;-81
2022/07/17 11:16:52;;;;;;;4.90;0.90;;;;;;;22.65;39.07;102017.05;108038;1276;60654;-81
2022/07/17 11:19:42;;;;;;;3.60;1.10;;;;;;;22.79;37.91;102013.71;108039;1276;60824;-81
2022/07/17 11:22:11;;;;;;;3.70;1.10;;;;;;;23.03;37.82;102010.42;108114;1276;74823;-82
2022/07/17 11:24:46;;;;;;;3.50;1.00;;;;;;;23.24;37.25;102005.73;108099;1276;71469;-82
2022/07/17 11:27:20;;;;;;;4.80;0.90;;;;;;;23.28;36.15;102006.89;108046;1276;74029;-82